To NAV CANADA Home Page Login to a new session Search on AWWS site Disclaimer Vers la page française équivalente Tips FAQ What's new on the site To the Forecasts and Observations / NOTAM section To "File a Flight Plan" website Publications and other links Update of the User's profile FIC Telephone Numbers My Weather Data Folder Route Weather Data Regional Weather Data Local Weather Data To the Forecasts and Observations / NOTAM section
Request Generated 03/21/2019 at 01:30:09 UTC . Weather information available at that time is displayed.

METAR/TAF

PETERBOROUGH/ON    (show WxCam)

METAR CYPQ 210100Z AUTO 19004KT 9SM BKN120 OVC140 02/M02 A3008 RMK SLP195=
METAR CYPQ 210000Z AUTO 17005KT 9SM BKN150 BKN170 03/M03 A3008 RMK SLP194=
METAR CYPQ 202300Z AUTO 21005KT 9SM BKN140 06/M04 A3009 RMK SLP198=

TAF CYPQ 201939Z 2020/2102 22010G20KT P6SM SCT040 SCT120
RMK FCST BASED ON AUTO OBS. NXT FCST WILL BE ISSUED AT 210945Z=
Your time UTC time
Weather data provided by Environment Canada and NAV CANADA